sensor_id;sensor_type;location;lat;lon;timestamp;P1;durP1;ratioP1;P2;durP2;ratioP2
9968;SDS011;5025;48.890;9.278;2023-06-10T00:01:44;4.70;;;4.40;;
9968;SDS011;5025;48.890;9.278;2023-06-10T00:04:12;4.80;;;4.50;;
9968;SDS011;5025;48.890;9.278;2023-06-10T00:06:39;4.97;;;4.67;;
9968;SDS011;5025;48.890;9.278;2023-06-10T00:09:05;5.07;;;4.77;;
9968;SDS011;5025;48.890;9.278;2023-06-10T00:11:34;4.70;;;4.40;;
9968;SDS011;5025;48.890;9.278;2023-06-10T00:14:01;4.77;;;4.47;;
9968;SDS011;5025;48.890;9.278;2023-06-10T00:16:26;5.03;;;4.63;;
9968;SDS011;5025;48.890;9.278;2023-06-10T00:18:52;4.73;;;4.43;;
9968;SDS011;5025;48.890;9.278;2023-06-10T00:21:17;4.73;;;4.43;;
9968;SDS011;5025;48.890;9.278;2023-06-10T00:23:43;4.90;;;4.57;;
9968;SDS011;5025;48.890;9.278;2023-06-10T00:26:09;4.30;;;4.10;;
9968;SDS011;5025;48.890;9.278;2023-06-10T00:28:34;4.20;;;4.00;;
9968;SDS011;5025;48.890;9.278;2023-06-10T00:31:00;4.30;;;4.10;;
9968;SDS011;5025;48.890;9.278;2023-06-10T00:33:25;4.27;;;4.07;;
9968;SDS011;5025;48.890;9.278;2023-06-10T00:35:50;4.33;;;4.10;;
9968;SDS011;5025;48.890;9.278;2023-06-10T00:38:15;5.00;;;4.60;;
9968;SDS011;5025;48.890;9.278;2023-06-10T00:40:41;4.63;;;4.33;;
9968;SDS011;5025;48.890;9.278;2023-06-10T00:43:07;4.50;;;4.20;;
9968;SDS011;5025;48.890;9.278;2023-06-10T00:45:32;4.37;;;4.07;;
9968;SDS011;5025;48.890;9.278;2023-06-10T00:47:58;4.60;;;4.30;;
9968;SDS011;5025;48.890;9.278;2023-06-10T00:50:24;4.07;;;3.80;;
9968;SDS011;5025;48.890;9.278;2023-06-10T00:52:50;3.90;;;3.70;;
9968;SDS011;5025;48.890;9.278;2023-06-10T00:55:16;3.93;;;3.73;;
9968;SDS011;5025;48.890;9.278;2023-06-10T00:57:42;4.20;;;4.00;;
9968;SDS011;5025;48.890;9.278;2023-06-10T01:00:09;4.00;;;3.80;;
9968;SDS011;5025;48.890;9.278;2023-06-10T01:02:35;4.30;;;4.00;;
9968;SDS011;5025;48.890;9.278;2023-06-10T01:05:01;4.20;;;4.00;;
9968;SDS011;5025;48.890;9.278;2023-06-10T01:07:28;4.03;;;3.80;;
9968;SDS011;5025;48.890;9.278;2023-06-10T01:12:44;4.30;;;4.10;;
9968;SDS011;5025;48.890;9.278;2023-06-10T01:15:15;3.93;;;3.73;;
9968;SDS011;5025;48.890;9.278;2023-06-10T01:17:54;4.07;;;3.87;;
9968;SDS011;5025;48.890;9.278;2023-06-10T01:20:19;4.10;;;3.80;;
9968;SDS011;5025;48.890;9.278;2023-06-10T01:22:44;4.07;;;3.87;;
9968;SDS011;5025;48.890;9.278;2023-06-10T01:25:10;4.10;;;3.80;;
9968;SDS011;5025;48.890;9.278;2023-06-10T01:27:36;4.47;;;4.23;;
9968;SDS011;5025;48.890;9.278;2023-06-10T01:30:08;4.20;;;3.90;;
9968;SDS011;5025;48.890;9.278;2023-06-10T01:32:42;4.27;;;3.97;;
9968;SDS011;5025;48.890;9.278;2023-06-10T01:35:10;4.77;;;4.47;;
9968;SDS011;5025;48.890;9.278;2023-06-10T01:37:37;4.83;;;4.53;;
9968;SDS011;5025;48.890;9.278;2023-06-10T01:40:04;4.47;;;4.17;;
9968;SDS011;5025;48.890;9.278;2023-06-10T01:42:31;4.40;;;4.10;;
9968;SDS011;5025;48.890;9.278;2023-06-10T01:44:57;4.80;;;4.50;;
9968;SDS011;5025;48.890;9.278;2023-06-10T01:47:22;4.43;;;4.20;;
9968;SDS011;5025;48.890;9.278;2023-06-10T01:49:48;4.90;;;4.60;;
9968;SDS011;5025;48.890;9.278;2023-06-10T01:52:13;4.77;;;4.47;;
9968;SDS011;5025;48.890;9.278;2023-06-10T01:54:38;4.97;;;4.63;;
9968;SDS011;5025;48.890;9.278;2023-06-10T01:57:03;4.40;;;4.20;;
9968;SDS011;5025;48.890;9.278;2023-06-10T01:59:31;4.80;;;4.50;;
9968;SDS011;5025;48.890;9.278;2023-06-10T02:01:56;4.70;;;4.40;;
9968;SDS011;5025;48.890;9.278;2023-06-10T02:04:21;4.53;;;4.20;;
9968;SDS011;5025;48.890;9.278;2023-06-10T02:06:46;3.90;;;3.70;;
9968;SDS011;5025;48.890;9.278;2023-06-10T02:09:12;4.10;;;3.90;;
9968;SDS011;5025;48.890;9.278;2023-06-10T02:11:37;3.80;;;3.60;;
9968;SDS011;5025;48.890;9.278;2023-06-10T02:14:02;3.40;;;3.30;;
9968;SDS011;5025;48.890;9.278;2023-06-10T02:16:27;3.50;;;3.30;;
9968;SDS011;5025;48.890;9.278;2023-06-10T02:18:53;4.00;;;3.77;;
9968;SDS011;5025;48.890;9.278;2023-06-10T02:21:18;3.63;;;3.43;;
9968;SDS011;5025;48.890;9.278;2023-06-10T02:23:43;3.37;;;3.20;;
9968;SDS011;5025;48.890;9.278;2023-06-10T02:26:08;3.47;;;3.30;;
9968;SDS011;5025;48.890;9.278;2023-06-10T02:28:34;3.63;;;3.43;;
9968;SDS011;5025;48.890;9.278;2023-06-10T02:30:59;3.70;;;3.40;;
9968;SDS011;5025;48.890;9.278;2023-06-10T02:33:25;3.43;;;3.33;;
9968;SDS011;5025;48.890;9.278;2023-06-10T02:35:52;3.50;;;3.30;;
9968;SDS011;5025;48.890;9.278;2023-06-10T02:38:17;3.50;;;3.30;;
9968;SDS011;5025;48.890;9.278;2023-06-10T02:40:43;3.47;;;3.27;;
9968;SDS011;5025;48.890;9.278;2023-06-10T02:43:08;3.70;;;3.50;;
9968;SDS011;5025;48.890;9.278;2023-06-10T02:45:34;3.70;;;3.50;;
9968;SDS011;5025;48.890;9.278;2023-06-10T02:47:59;3.90;;;3.70;;
9968;SDS011;5025;48.890;9.278;2023-06-10T02:50:24;3.83;;;3.63;;
9968;SDS011;5025;48.890;9.278;2023-06-10T02:52:50;4.20;;;4.00;;
9968;SDS011;5025;48.890;9.278;2023-06-10T02:55:15;4.07;;;3.87;;
9968;SDS011;5025;48.890;9.278;2023-06-10T02:57:40;4.43;;;4.23;;
9968;SDS011;5025;48.890;9.278;2023-06-10T03:00:06;4.10;;;3.90;;
9968;SDS011;5025;48.890;9.278;2023-06-10T03:02:35;4.20;;;3.90;;
9968;SDS011;5025;48.890;9.278;2023-06-10T03:05:01;4.33;;;4.10;;
9968;SDS011;5025;48.890;9.278;2023-06-10T03:07:27;4.20;;;4.00;;
9968;SDS011;5025;48.890;9.278;2023-06-10T03:09:52;4.00;;;3.80;;
9968;SDS011;5025;48.890;9.278;2023-06-10T03:12:18;4.30;;;4.10;;
9968;SDS011;5025;48.890;9.278;2023-06-10T03:14:43;4.50;;;4.20;;
9968;SDS011;5025;48.890;9.278;2023-06-10T03:17:08;4.13;;;3.90;;
9968;SDS011;5025;48.890;9.278;2023-06-10T03:19:34;4.10;;;3.90;;
9968;SDS011;5025;48.890;9.278;2023-06-10T03:24:35;4.50;;;4.20;;
9968;SDS011;5025;48.890;9.278;2023-06-10T03:27:01;4.30;;;4.10;;
9968;SDS011;5025;48.890;9.278;2023-06-10T03:29:26;4.23;;;3.97;;
9968;SDS011;5025;48.890;9.278;2023-06-10T03:31:52;4.70;;;4.40;;
9968;SDS011;5025;48.890;9.278;2023-06-10T03:34:17;4.37;;;4.17;;
9968;SDS011;5025;48.890;9.278;2023-06-10T03:36:42;4.20;;;3.90;;
9968;SDS011;5025;48.890;9.278;2023-06-10T03:39:08;4.50;;;4.20;;
9968;SDS011;5025;48.890;9.278;2023-06-10T03:41:34;3.93;;;3.73;;
9968;SDS011;5025;48.890;9.278;2023-06-10T03:43:59;4.10;;;3.90;;
9968;SDS011;5025;48.890;9.278;2023-06-10T03:46:25;4.37;;;4.17;;
9968;SDS011;5025;48.890;9.278;2023-06-10T03:48:50;4.43;;;4.23;;
9968;SDS011;5025;48.890;9.278;2023-06-10T03:51:16;4.00;;;3.80;;
9968;SDS011;5025;48.890;9.278;2023-06-10T03:53:41;4.20;;;3.90;;
9968;SDS011;5025;48.890;9.278;2023-06-10T03:56:06;3.90;;;3.70;;
9968;SDS011;5025;48.890;9.278;2023-06-10T03:58:32;4.47;;;4.13;;
9968;SDS011;5025;48.890;9.278;2023-06-10T04:00:57;4.40;;;4.10;;
9968;SDS011;5025;48.890;9.278;2023-06-10T04:03:22;4.47;;;4.17;;
9968;SDS011;5025;48.890;9.278;2023-06-10T04:05:47;4.30;;;4.00;;
9968;SDS011;5025;48.890;9.278;2023-06-10T04:08:13;4.23;;;4.00;;
9968;SDS011;5025;48.890;9.278;2023-06-10T04:10:38;4.33;;;4.00;;
9968;SDS011;5025;48.890;9.278;2023-06-10T04:13:03;4.20;;;4.00;;
9968;SDS011;5025;48.890;9.278;2023-06-10T04:15:29;4.67;;;4.47;;
9968;SDS011;5025;48.890;9.278;2023-06-10T04:17:57;4.63;;;4.33;;
9968;SDS011;5025;48.890;9.278;2023-06-10T04:20:22;4.77;;;4.47;;
9968;SDS011;5025;48.890;9.278;2023-06-10T04:22:48;5.00;;;4.70;;
9968;SDS011;5025;48.890;9.278;2023-06-10T04:25:13;4.30;;;4.10;;
9968;SDS011;5025;48.890;9.278;2023-06-10T04:27:38;4.97;;;4.70;;
9968;SDS011;5025;48.890;9.278;2023-06-10T04:30:04;5.30;;;5.00;;
9968;SDS011;5025;48.890;9.278;2023-06-10T04:32:30;5.60;;;5.20;;
9968;SDS011;5025;48.890;9.278;2023-06-10T04:34:55;5.60;;;5.20;;
9968;SDS011;5025;48.890;9.278;2023-06-10T04:37:21;6.03;;;5.60;;
9968;SDS011;5025;48.890;9.278;2023-06-10T04:39:46;5.33;;;5.00;;
9968;SDS011;5025;48.890;9.278;2023-06-10T04:42:12;5.50;;;5.20;;
9968;SDS011;5025;48.890;9.278;2023-06-10T04:44:37;5.80;;;5.40;;
9968;SDS011;5025;48.890;9.278;2023-06-10T04:47:03;5.40;;;5.10;;
9968;SDS011;5025;48.890;9.278;2023-06-10T04:49:29;5.53;;;5.20;;
9968;SDS011;5025;48.890;9.278;2023-06-10T04:51:54;5.93;;;5.53;;
9968;SDS011;5025;48.890;9.278;2023-06-10T04:54:20;6.13;;;5.70;;
9968;SDS011;5025;48.890;9.278;2023-06-10T04:56:45;5.77;;;5.40;;
9968;SDS011;5025;48.890;9.278;2023-06-10T04:59:11;5.93;;;5.53;;
9968;SDS011;5025;48.890;9.278;2023-06-10T05:01:36;5.50;;;5.20;;
9968;SDS011;5025;48.890;9.278;2023-06-10T05:04:02;5.73;;;5.27;;
9968;SDS011;5025;48.890;9.278;2023-06-10T05:06:27;5.50;;;5.10;;
9968;SDS011;5025;48.890;9.278;2023-06-10T05:08:53;5.50;;;5.20;;
9968;SDS011;5025;48.890;9.278;2023-06-10T05:11:18;5.80;;;5.40;;
9968;SDS011;5025;48.890;9.278;2023-06-10T05:13:43;5.50;;;5.20;;
9968;SDS011;5025;48.890;9.278;2023-06-10T05:16:09;5.87;;;5.50;;
9968;SDS011;5025;48.890;9.278;2023-06-10T05:18:34;5.27;;;4.97;;
9968;SDS011;5025;48.890;9.278;2023-06-10T05:21:00;5.40;;;5.10;;
9968;SDS011;5025;48.890;9.278;2023-06-10T05:23:26;5.23;;;4.83;;
9968;SDS011;5025;48.890;9.278;2023-06-10T05:25:51;5.50;;;5.20;;
9968;SDS011;5025;48.890;9.278;2023-06-10T05:28:16;5.77;;;5.23;;
9968;SDS011;5025;48.890;9.278;2023-06-10T05:30:42;5.30;;;5.00;;
9968;SDS011;5025;48.890;9.278;2023-06-10T05:33:07;5.30;;;5.00;;
9968;SDS011;5025;48.890;9.278;2023-06-10T05:35:32;5.60;;;5.30;;
9968;SDS011;5025;48.890;9.278;2023-06-10T05:37:58;5.07;;;4.77;;
9968;SDS011;5025;48.890;9.278;2023-06-10T05:40:23;4.97;;;4.67;;
9968;SDS011;5025;48.890;9.278;2023-06-10T05:42:48;4.90;;;4.60;;
9968;SDS011;5025;48.890;9.278;2023-06-10T05:45:14;4.63;;;4.43;;
9968;SDS011;5025;48.890;9.278;2023-06-10T05:47:39;5.20;;;4.90;;
9968;SDS011;5025;48.890;9.278;2023-06-10T05:50:05;4.90;;;4.60;;
9968;SDS011;5025;48.890;9.278;2023-06-10T05:52:32;4.80;;;4.50;;
9968;SDS011;5025;48.890;9.278;2023-06-10T05:54:58;4.60;;;4.40;;
9968;SDS011;5025;48.890;9.278;2023-06-10T05:57:24;4.53;;;4.23;;
9968;SDS011;5025;48.890;9.278;2023-06-10T05:59:49;4.50;;;4.20;;
9968;SDS011;5025;48.890;9.278;2023-06-10T06:02:15;4.67;;;4.37;;
9968;SDS011;5025;48.890;9.278;2023-06-10T06:04:40;4.80;;;4.50;;
9968;SDS011;5025;48.890;9.278;2023-06-10T06:07:05;4.60;;;4.30;;
9968;SDS011;5025;48.890;9.278;2023-06-10T06:09:30;4.90;;;4.50;;
9968;SDS011;5025;48.890;9.278;2023-06-10T06:11:56;4.70;;;4.40;;
9968;SDS011;5025;48.890;9.278;2023-06-10T06:14:21;5.07;;;4.77;;
9968;SDS011;5025;48.890;9.278;2023-06-10T06:16:46;5.00;;;4.70;;
9968;SDS011;5025;48.890;9.278;2023-06-10T06:19:11;4.50;;;4.30;;
9968;SDS011;5025;48.890;9.278;2023-06-10T06:21:37;5.10;;;4.80;;
9968;SDS011;5025;48.890;9.278;2023-06-10T06:24:02;4.73;;;4.43;;
9968;SDS011;5025;48.890;9.278;2023-06-10T06:26:27;4.03;;;3.73;;
9968;SDS011;5025;48.890;9.278;2023-06-10T06:28:53;4.17;;;3.97;;
9968;SDS011;5025;48.890;9.278;2023-06-10T06:31:18;4.10;;;3.90;;
9968;SDS011;5025;48.890;9.278;2023-06-10T06:33:43;3.93;;;3.73;;
9968;SDS011;5025;48.890;9.278;2023-06-10T06:36:08;3.87;;;3.67;;
9968;SDS011;5025;48.890;9.278;2023-06-10T06:38:34;3.70;;;3.50;;
9968;SDS011;5025;48.890;9.278;2023-06-10T06:40:59;3.80;;;3.60;;
9968;SDS011;5025;48.890;9.278;2023-06-10T06:43:28;3.70;;;3.50;;
9968;SDS011;5025;48.890;9.278;2023-06-10T06:45:55;4.20;;;4.00;;
9968;SDS011;5025;48.890;9.278;2023-06-10T06:48:21;3.70;;;3.50;;
9968;SDS011;5025;48.890;9.278;2023-06-10T06:50:46;3.80;;;3.60;;
9968;SDS011;5025;48.890;9.278;2023-06-10T06:53:12;4.03;;;3.73;;
9968;SDS011;5025;48.890;9.278;2023-06-10T06:55:37;3.70;;;3.50;;
9968;SDS011;5025;48.890;9.278;2023-06-10T06:58:02;4.00;;;3.80;;
9968;SDS011;5025;48.890;9.278;2023-06-10T07:00:28;3.67;;;3.47;;
9968;SDS011;5025;48.890;9.278;2023-06-10T07:02:54;4.00;;;3.70;;
9968;SDS011;5025;48.890;9.278;2023-06-10T07:05:20;3.47;;;3.27;;
9968;SDS011;5025;48.890;9.278;2023-06-10T07:07:45;3.67;;;3.47;;
9968;SDS011;5025;48.890;9.278;2023-06-10T07:10:10;3.70;;;3.50;;
9968;SDS011;5025;48.890;9.278;2023-06-10T07:12:36;3.40;;;3.30;;
9968;SDS011;5025;48.890;9.278;2023-06-10T07:15:01;3.63;;;3.43;;
9968;SDS011;5025;48.890;9.278;2023-06-10T07:17:26;3.80;;;3.60;;
9968;SDS011;5025;48.890;9.278;2023-06-10T07:19:52;4.00;;;3.80;;
9968;SDS011;5025;48.890;9.278;2023-06-10T07:22:17;3.73;;;3.53;;
9968;SDS011;5025;48.890;9.278;2023-06-10T07:24:42;3.63;;;3.43;;
9968;SDS011;5025;48.890;9.278;2023-06-10T07:27:08;4.10;;;3.90;;
9968;SDS011;5025;48.890;9.278;2023-06-10T07:29:33;3.70;;;3.50;;
9968;SDS011;5025;48.890;9.278;2023-06-10T07:32:00;3.80;;;3.60;;
9968;SDS011;5025;48.890;9.278;2023-06-10T07:34:27;3.80;;;3.60;;
9968;SDS011;5025;48.890;9.278;2023-06-10T07:36:52;3.30;;;3.20;;
9968;SDS011;5025;48.890;9.278;2023-06-10T07:39:17;3.77;;;3.57;;
9968;SDS011;5025;48.890;9.278;2023-06-10T07:41:43;3.53;;;3.40;;
9968;SDS011;5025;48.890;9.278;2023-06-10T07:44:08;3.10;;;3.00;;
9968;SDS011;5025;48.890;9.278;2023-06-10T07:46:33;3.43;;;3.33;;
9968;SDS011;5025;48.890;9.278;2023-06-10T07:48:58;3.67;;;3.47;;
9968;SDS011;5025;48.890;9.278;2023-06-10T07:51:24;3.53;;;3.33;;
9968;SDS011;5025;48.890;9.278;2023-06-10T07:53:49;5.03;;;4.73;;
9968;SDS011;5025;48.890;9.278;2023-06-10T07:56:14;4.70;;;4.40;;
9968;SDS011;5025;48.890;9.278;2023-06-10T07:58:40;4.30;;;4.10;;
9968;SDS011;5025;48.890;9.278;2023-06-10T08:01:05;4.40;;;4.20;;
9968;SDS011;5025;48.890;9.278;2023-06-10T08:03:30;4.00;;;3.80;;
9968;SDS011;5025;48.890;9.278;2023-06-10T08:05:56;3.60;;;3.50;;
9968;SDS011;5025;48.890;9.278;2023-06-10T08:08:21;4.20;;;4.00;;
9968;SDS011;5025;48.890;9.278;2023-06-10T08:10:46;4.10;;;3.90;;
9968;SDS011;5025;48.890;9.278;2023-06-10T08:13:11;4.10;;;3.90;;
9968;SDS011;5025;48.890;9.278;2023-06-10T08:15:37;4.10;;;3.90;;
9968;SDS011;5025;48.890;9.278;2023-06-10T08:18:02;4.30;;;4.10;;
9968;SDS011;5025;48.890;9.278;2023-06-10T08:20:28;4.27;;;4.00;;
9968;SDS011;5025;48.890;9.278;2023-06-10T08:22:53;3.53;;;3.43;;
9968;SDS011;5025;48.890;9.278;2023-06-10T08:25:18;4.10;;;3.90;;
9968;SDS011;5025;48.890;9.278;2023-06-10T08:27:43;3.67;;;3.47;;
9968;SDS011;5025;48.890;9.278;2023-06-10T08:30:09;3.70;;;3.50;;
9968;SDS011;5025;48.890;9.278;2023-06-10T08:32:35;4.20;;;4.00;;
9968;SDS011;5025;48.890;9.278;2023-06-10T08:35:01;4.27;;;4.07;;
9968;SDS011;5025;48.890;9.278;2023-06-10T08:37:26;4.30;;;4.10;;
9968;SDS011;5025;48.890;9.278;2023-06-10T08:39:52;5.40;;;5.10;;
9968;SDS011;5025;48.890;9.278;2023-06-10T08:42:30;5.70;;;5.40;;
9968;SDS011;5025;48.890;9.278;2023-06-10T08:44:58;5.60;;;5.20;;
9968;SDS011;5025;48.890;9.278;2023-06-10T08:47:26;5.80;;;5.40;;
9968;SDS011;5025;48.890;9.278;2023-06-10T08:49:56;5.20;;;4.90;;
9968;SDS011;5025;48.890;9.278;2023-06-10T08:52:26;5.60;;;5.20;;
9968;SDS011;5025;48.890;9.278;2023-06-10T08:54:56;4.63;;;4.43;;
9968;SDS011;5025;48.890;9.278;2023-06-10T08:57:24;4.80;;;4.55;;
9968;SDS011;5025;48.890;9.278;2023-06-10T08:59:50;4.70;;;4.40;;
9968;SDS011;5025;48.890;9.278;2023-06-10T09:02:17;4.80;;;4.50;;
9968;SDS011;5025;48.890;9.278;2023-06-10T09:04:46;4.50;;;4.30;;
9968;SDS011;5025;48.890;9.278;2023-06-10T09:07:13;4.40;;;4.20;;
9968;SDS011;5025;48.890;9.278;2023-06-10T09:09:40;4.17;;;3.97;;
9968;SDS011;5025;48.890;9.278;2023-06-10T09:12:07;4.10;;;3.90;;
9968;SDS011;5025;48.890;9.278;2023-06-10T09:14:32;3.90;;;3.70;;
9968;SDS011;5025;48.890;9.278;2023-06-10T09:16:58;3.80;;;3.60;;
9968;SDS011;5025;48.890;9.278;2023-06-10T09:19:23;3.83;;;3.63;;
9968;SDS011;5025;48.890;9.278;2023-06-10T09:21:50;3.60;;;3.40;;
9968;SDS011;5025;48.890;9.278;2023-06-10T09:24:15;3.70;;;3.50;;
9968;SDS011;5025;48.890;9.278;2023-06-10T09:26:41;3.40;;;3.23;;
9968;SDS011;5025;48.890;9.278;2023-06-10T09:29:08;3.53;;;3.33;;
9968;SDS011;5025;48.890;9.278;2023-06-10T09:31:34;3.53;;;3.40;;
9968;SDS011;5025;48.890;9.278;2023-06-10T09:34:11;3.47;;;3.30;;
9968;SDS011;5025;48.890;9.278;2023-06-10T09:36:37;3.70;;;3.50;;
9968;SDS011;5025;48.890;9.278;2023-06-10T09:39:03;3.63;;;3.43;;
9968;SDS011;5025;48.890;9.278;2023-06-10T09:41:39;3.37;;;3.27;;
9968;SDS011;5025;48.890;9.278;2023-06-10T09:44:11;3.20;;;3.10;;
9968;SDS011;5025;48.890;9.278;2023-06-10T09:46:40;3.40;;;3.30;;
9968;SDS011;5025;48.890;9.278;2023-06-10T09:49:06;3.43;;;3.23;;
9968;SDS011;5025;48.890;9.278;2023-06-10T09:51:31;3.30;;;3.20;;
9968;SDS011;5025;48.890;9.278;2023-06-10T09:53:57;3.50;;;3.30;;
9968;SDS011;5025;48.890;9.278;2023-06-10T09:56:33;3.20;;;3.10;;
9968;SDS011;5025;48.890;9.278;2023-06-10T09:59:02;3.70;;;3.50;;
9968;SDS011;5025;48.890;9.278;2023-06-10T10:01:30;3.70;;;3.50;;
9968;SDS011;5025;48.890;9.278;2023-06-10T10:03:55;3.50;;;3.30;;
9968;SDS011;5025;48.890;9.278;2023-06-10T10:06:20;3.30;;;3.20;;
9968;SDS011;5025;48.890;9.278;2023-06-10T10:08:46;3.10;;;3.00;;
9968;SDS011;5025;48.890;9.278;2023-06-10T10:11:14;3.30;;;3.17;;
9968;SDS011;5025;48.890;9.278;2023-06-10T10:13:41;3.00;;;2.90;;
9968;SDS011;5025;48.890;9.278;2023-06-10T10:16:10;3.10;;;3.00;;
9968;SDS011;5025;48.890;9.278;2023-06-10T10:18:43;3.40;;;3.30;;
9968;SDS011;5025;48.890;9.278;2023-06-10T10:21:13;3.47;;;3.37;;
9968;SDS011;5025;48.890;9.278;2023-06-10T10:26:22;3.13;;;3.00;;
9968;SDS011;5025;48.890;9.278;2023-06-10T10:28:53;3.20;;;3.10;;
9968;SDS011;5025;48.890;9.278;2023-06-10T10:31:39;3.10;;;3.00;;
9968;SDS011;5025;48.890;9.278;2023-06-10T10:34:12;3.20;;;3.10;;
9968;SDS011;5025;48.890;9.278;2023-06-10T10:36:41;3.40;;;3.30;;
9968;SDS011;5025;48.890;9.278;2023-06-10T10:39:07;3.10;;;3.00;;
9968;SDS011;5025;48.890;9.278;2023-06-10T10:41:32;3.10;;;3.00;;
9968;SDS011;5025;48.890;9.278;2023-06-10T10:43:58;3.50;;;3.30;;
9968;SDS011;5025;48.890;9.278;2023-06-10T10:46:24;3.17;;;3.03;;
9968;SDS011;5025;48.890;9.278;2023-06-10T10:48:53;3.80;;;3.60;;
9968;SDS011;5025;48.890;9.278;2023-06-10T10:51:24;3.50;;;3.30;;
9968;SDS011;5025;48.890;9.278;2023-06-10T10:57:06;3.30;;;3.10;;
9968;SDS011;5025;48.890;9.278;2023-06-10T11:05:15;2.93;;;2.83;;
9968;SDS011;5025;48.890;9.278;2023-06-10T11:07:51;3.40;;;3.30;;
9968;SDS011;5025;48.890;9.278;2023-06-10T11:10:28;3.53;;;3.33;;
9968;SDS011;5025;48.890;9.278;2023-06-10T11:13:02;3.30;;;3.10;;
9968;SDS011;5025;48.890;9.278;2023-06-10T11:15:31;3.67;;;3.47;;
9968;SDS011;5025;48.890;9.278;2023-06-10T11:18:38;3.40;;;3.30;;
9968;SDS011;5025;48.890;9.278;2023-06-10T11:23:24;2.80;;;2.70;;
9968;SDS011;5025;48.890;9.278;2023-06-10T11:25:50;2.90;;;2.80;;
9968;SDS011;5025;48.890;9.278;2023-06-10T11:28:17;3.00;;;2.90;;
9968;SDS011;5025;48.890;9.278;2023-06-10T11:30:44;3.00;;;2.90;;
9968;SDS011;5025;48.890;9.278;2023-06-10T11:33:09;3.07;;;2.97;;
9968;SDS011;5025;48.890;9.278;2023-06-10T11:35:40;2.97;;;2.87;;
9968;SDS011;5025;48.890;9.278;2023-06-10T11:38:05;3.20;;;3.10;;
9968;SDS011;5025;48.890;9.278;2023-06-10T11:40:31;2.90;;;2.80;;
9968;SDS011;5025;48.890;9.278;2023-06-10T11:42:57;2.93;;;2.83;;
9968;SDS011;5025;48.890;9.278;2023-06-10T11:45:23;3.27;;;3.13;;
9968;SDS011;5025;48.890;9.278;2023-06-10T11:47:58;3.00;;;2.90;;
9968;SDS011;5025;48.890;9.278;2023-06-10T11:50:28;2.80;;;2.70;;
9968;SDS011;5025;48.890;9.278;2023-06-10T11:52:56;2.80;;;2.70;;
9968;SDS011;5025;48.890;9.278;2023-06-10T11:55:23;2.80;;;2.70;;
9968;SDS011;5025;48.890;9.278;2023-06-10T11:57:48;2.77;;;2.67;;
9968;SDS011;5025;48.890;9.278;2023-06-10T12:00:22;2.80;;;2.70;;
9968;SDS011;5025;48.890;9.278;2023-06-10T12:02:54;2.77;;;2.67;;
9968;SDS011;5025;48.890;9.278;2023-06-10T12:05:22;2.80;;;2.70;;
9968;SDS011;5025;48.890;9.278;2023-06-10T12:07:47;2.90;;;2.80;;
9968;SDS011;5025;48.890;9.278;2023-06-10T12:10:12;3.00;;;2.90;;
9968;SDS011;5025;48.890;9.278;2023-06-10T12:12:38;3.20;;;3.00;;
9968;SDS011;5025;48.890;9.278;2023-06-10T12:15:03;3.10;;;3.00;;
9968;SDS011;5025;48.890;9.278;2023-06-10T12:19:56;3.40;;;3.30;;
9968;SDS011;5025;48.890;9.278;2023-06-10T12:22:21;2.97;;;2.87;;
9968;SDS011;5025;48.890;9.278;2023-06-10T12:25:01;2.80;;;2.70;;
9968;SDS011;5025;48.890;9.278;2023-06-10T12:27:31;3.10;;;3.00;;
9968;SDS011;5025;48.890;9.278;2023-06-10T12:29:58;3.13;;;2.93;;
9968;SDS011;5025;48.890;9.278;2023-06-10T12:32:39;3.03;;;2.93;;
9968;SDS011;5025;48.890;9.278;2023-06-10T12:35:06;2.80;;;2.70;;
9968;SDS011;5025;48.890;9.278;2023-06-10T12:37:32;2.77;;;2.67;;
9968;SDS011;5025;48.890;9.278;2023-06-10T12:39:59;2.70;;;2.60;;
9968;SDS011;5025;48.890;9.278;2023-06-10T12:42:26;2.70;;;2.60;;
9968;SDS011;5025;48.890;9.278;2023-06-10T12:44:54;2.80;;;2.70;;
9968;SDS011;5025;48.890;9.278;2023-06-10T12:47:21;2.53;;;2.43;;
9968;SDS011;5025;48.890;9.278;2023-06-10T12:49:56;2.90;;;2.70;;
9968;SDS011;5025;48.890;9.278;2023-06-10T12:52:21;2.50;;;2.40;;
9968;SDS011;5025;48.890;9.278;2023-06-10T12:54:46;2.63;;;2.50;;
9968;SDS011;5025;48.890;9.278;2023-06-10T12:57:12;2.83;;;2.63;;
9968;SDS011;5025;48.890;9.278;2023-06-10T12:59:37;2.50;;;2.40;;
9968;SDS011;5025;48.890;9.278;2023-06-10T13:02:03;2.40;;;2.30;;
9968;SDS011;5025;48.890;9.278;2023-06-10T13:04:28;2.50;;;2.40;;
9968;SDS011;5025;48.890;9.278;2023-06-10T13:06:53;2.50;;;2.40;;
9968;SDS011;5025;48.890;9.278;2023-06-10T13:09:19;2.00;;;2.00;;
9968;SDS011;5025;48.890;9.278;2023-06-10T13:11:44;2.63;;;2.53;;
9968;SDS011;5025;48.890;9.278;2023-06-10T13:14:10;2.70;;;2.60;;
9968;SDS011;5025;48.890;9.278;2023-06-10T13:16:35;2.60;;;2.50;;
9968;SDS011;5025;48.890;9.278;2023-06-10T13:19:02;2.63;;;2.53;;
9968;SDS011;5025;48.890;9.278;2023-06-10T13:21:30;2.70;;;2.60;;
9968;SDS011;5025;48.890;9.278;2023-06-10T13:23:55;2.50;;;2.40;;
9968;SDS011;5025;48.890;9.278;2023-06-10T13:26:20;2.00;;;2.00;;
9968;SDS011;5025;48.890;9.278;2023-06-10T13:28:46;2.17;;;2.17;;
9968;SDS011;5025;48.890;9.278;2023-06-10T13:31:12;2.47;;;2.37;;
9968;SDS011;5025;48.890;9.278;2023-06-10T13:33:37;2.50;;;2.40;;
9968;SDS011;5025;48.890;9.278;2023-06-10T13:36:03;2.23;;;2.13;;
9968;SDS011;5025;48.890;9.278;2023-06-10T13:38:29;2.40;;;2.30;;
9968;SDS011;5025;48.890;9.278;2023-06-10T13:40:54;2.40;;;2.30;;
9968;SDS011;5025;48.890;9.278;2023-06-10T13:43:19;2.23;;;2.20;;
9968;SDS011;5025;48.890;9.278;2023-06-10T13:45:44;2.70;;;2.50;;
9968;SDS011;5025;48.890;9.278;2023-06-10T13:48:10;3.67;;;3.33;;
9968;SDS011;5025;48.890;9.278;2023-06-10T13:50:36;3.23;;;2.93;;
9968;SDS011;5025;48.890;9.278;2023-06-10T13:53:02;2.60;;;2.50;;
9968;SDS011;5025;48.890;9.278;2023-06-10T13:55:27;2.37;;;2.27;;
9968;SDS011;5025;48.890;9.278;2023-06-10T13:57:52;2.70;;;2.60;;
9968;SDS011;5025;48.890;9.278;2023-06-10T14:00:18;2.67;;;2.57;;
9968;SDS011;5025;48.890;9.278;2023-06-10T14:02:43;2.50;;;2.40;;
9968;SDS011;5025;48.890;9.278;2023-06-10T14:05:09;2.83;;;2.70;;
9968;SDS011;5025;48.890;9.278;2023-06-10T14:07:35;2.77;;;2.67;;
9968;SDS011;5025;48.890;9.278;2023-06-10T14:10:02;2.77;;;2.67;;
9968;SDS011;5025;48.890;9.278;2023-06-10T14:12:27;2.77;;;2.67;;
9968;SDS011;5025;48.890;9.278;2023-06-10T14:14:52;2.57;;;2.47;;
9968;SDS011;5025;48.890;9.278;2023-06-10T14:17:18;2.87;;;2.77;;
9968;SDS011;5025;48.890;9.278;2023-06-10T14:19:43;2.63;;;2.53;;
9968;SDS011;5025;48.890;9.278;2023-06-10T14:22:08;2.80;;;2.70;;
9968;SDS011;5025;48.890;9.278;2023-06-10T14:24:34;2.47;;;2.37;;
9968;SDS011;5025;48.890;9.278;2023-06-10T14:27:01;2.80;;;2.70;;
9968;SDS011;5025;48.890;9.278;2023-06-10T14:29:26;2.70;;;2.60;;
9968;SDS011;5025;48.890;9.278;2023-06-10T14:31:53;2.60;;;2.50;;
9968;SDS011;5025;48.890;9.278;2023-06-10T14:34:19;3.00;;;2.90;;
9968;SDS011;5025;48.890;9.278;2023-06-10T14:36:44;2.93;;;2.83;;
9968;SDS011;5025;48.890;9.278;2023-06-10T14:39:10;3.10;;;3.00;;
9968;SDS011;5025;48.890;9.278;2023-06-10T14:41:35;3.00;;;2.90;;
9968;SDS011;5025;48.890;9.278;2023-06-10T14:44:00;3.17;;;2.97;;
9968;SDS011;5025;48.890;9.278;2023-06-10T14:46:26;3.30;;;3.20;;
9968;SDS011;5025;48.890;9.278;2023-06-10T14:48:51;3.30;;;3.20;;
9968;SDS011;5025;48.890;9.278;2023-06-10T14:51:16;2.53;;;2.43;;
9968;SDS011;5025;48.890;9.278;2023-06-10T14:53:42;2.67;;;2.57;;
9968;SDS011;5025;48.890;9.278;2023-06-10T14:56:07;2.63;;;2.53;;
9968;SDS011;5025;48.890;9.278;2023-06-10T14:58:32;2.30;;;2.30;;
9968;SDS011;5025;48.890;9.278;2023-06-10T15:00:58;2.63;;;2.53;;
9968;SDS011;5025;48.890;9.278;2023-06-10T15:03:23;2.40;;;2.30;;
9968;SDS011;5025;48.890;9.278;2023-06-10T15:05:48;2.40;;;2.30;;
9968;SDS011;5025;48.890;9.278;2023-06-10T15:08:13;2.73;;;2.63;;
9968;SDS011;5025;48.890;9.278;2023-06-10T15:10:39;2.70;;;2.60;;
9968;SDS011;5025;48.890;9.278;2023-06-10T15:13:05;3.00;;;2.90;;
9968;SDS011;5025;48.890;9.278;2023-06-10T15:15:30;2.67;;;2.57;;
9968;SDS011;5025;48.890;9.278;2023-06-10T15:17:55;2.57;;;2.47;;
9968;SDS011;5025;48.890;9.278;2023-06-10T15:20:21;3.17;;;3.03;;
9968;SDS011;5025;48.890;9.278;2023-06-10T15:22:46;3.10;;;3.00;;
9968;SDS011;5025;48.890;9.278;2023-06-10T15:25:11;3.40;;;3.20;;
9968;SDS011;5025;48.890;9.278;2023-06-10T15:27:37;3.40;;;3.20;;
9968;SDS011;5025;48.890;9.278;2023-06-10T15:30:02;3.13;;;3.03;;
9968;SDS011;5025;48.890;9.278;2023-06-10T15:32:28;2.90;;;2.80;;